Data for 01/28/2014

Time Sea-Level Adjusted Pressure Absolute Pressure Temperature Relative Humidity Dew Point   
(mb) (inHg) (mb) (inHg) (C) (F) (%) (C) (F)
00:05 1024 30.24 854 25.22 -12.4 9.8 58 -19 -2.3
00:10 1024 30.24 854 25.22 -12.8 9 59 -19.2 -2.5
00:15 1024 30.24 854 25.22 -13.1 8.5 60 -19.3 -2.8
00:20 1024 30.24 854 25.22 -12.9 8.9 59 -19.4 -2.8
00:25 1024 30.24 854 25.22 -12.7 9.1 58 -19.3 -2.7
00:30 1025 30.27 854 25.22 -12.7 9.1 59 -19.2 -2.6
00:35 1025 30.27 854 25.22 -12.7 9.2 58 -19.4 -2.9
00:40 1025 30.27 854 25.22 -12.6 9.3 59 -19.1 -2.4
00:45 1025 30.27 854 25.22 -12.7 9.1 58 -19.4 -2.9
00:50 1025 30.27 854 25.22 -12.7 9.1 58 -19.3 -2.7
00:55 1025 30.27 854 25.22 -12.9 8.7 58 -19.6 -3.3
01:00 1025 30.27 854 25.22 -12.9 8.8 56 -19.8 -3.7
01:05 1025 30.27 854 25.22 -12.7 9.1 56 -19.7 -3.5
01:10 1025 30.27 854 25.22 -12.9 8.8 59 -19.4 -2.9
01:15 1025 30.27 854 25.22 -13.2 8.2 60 -19.4 -2.9
01:20 1025 30.27 854 25.22 -13.3 8.1 61 -19.4 -2.9
01:25 1025 30.27 854 25.22 -13.5 7.7 61 -19.4 -3
01:30 1025 30.27 854 25.22 -13.6 7.5 62 -19.5 -3
01:35 1025 30.27 854 25.22 -13.6 7.5 62 -19.4 -2.9
01:40 1025 30.27 854 25.22 -13.7 7.4 62 -19.4 -2.9
01:45 1025 30.27 854 25.22 -13.6 7.5 61 -19.5 -3.2
01:50 1025 30.27 854 25.22 -13.5 7.6 61 -19.5 -3
01:55 1025 30.27 854 25.22 -13.6 7.6 62 -19.4 -3
02:00 1025 30.27 854 25.22 -13.6 7.5 62 -19.4 -3
02:05 1025 30.27 854 25.22 -13.8 7.2 63 -19.4 -3
02:10 1025 30.27 854 25.22 -13.9 7.1 63 -19.4 -2.9
02:15 1025 30.27 854 25.22 -13.7 7.4 62 -19.4 -2.9
02:20 1025 30.27 854 25.22 -13.4 7.9 62 -19.2 -2.5
02:25 1025 30.27 854 25.22 -13.2 8.2 62 -19.2 -2.5
02:30 1025 30.27 854 25.22 -13.1 8.5 61 -19.1 -2.4
02:35 1025 30.27 854 25.22 -13.1 8.4 61 -19.1 -2.4
02:40 1024 30.24 854 25.22 -12.9 8.8 60 -19.2 -2.6
02:45 1024 30.24 854 25.22 -12.6 9.4 60 -18.9 -2.1
02:50 1024 30.24 853 25.19 -12.9 8.8 61 -18.9 -2
02:55 1024 30.24 853 25.19 -13.2 8.3 63 -18.9 -1.9
03:00 1024 30.24 853 25.19 -13 8.7 62 -18.8 -1.9
03:05 1024 30.24 853 25.19 -13.2 8.3 64 -18.6 -1.6
03:10 1024 30.24 853 25.19 -13.4 7.9 64 -18.9 -2.1
03:15 1024 30.24 853 25.19 -13.9 7 61 -19.9 -3.8
03:20 1024 30.24 853 25.19 -13.5 7.6 60 -19.7 -3.4
03:25 1024 30.24 853 25.19 -13.8 7.1 61 -19.8 -3.6
03:30 1024 30.24 853 25.19 -13.7 7.4 60 -19.9 -3.8
03:35 1024 30.24 853 25.19 -13.2 8.2 59 -19.6 -3.3
03:40 1024 30.24 853 25.19 -13.1 8.4 58 -19.8 -3.6
03:45 1024 30.24 853 25.19 -12.8 9 57 -19.6 -3.3
03:50 1024 30.24 853 25.19 -13.1 8.5 59 -19.4 -2.9
03:55 1024 30.24 853 25.19 -13.3 8.2 59 -19.6 -3.2
04:00 1024 30.24 853 25.19 -13.4 7.9 61 -19.5 -3.1
04:05 1024 30.24 853 25.19 -13.7 7.3 61 -19.8 -3.6
04:10 1024 30.24 853 25.19 -13.8 7.1 61 -19.9 -3.9
04:15 1024 30.24 853 25.19 -13.7 7.3 60 -19.9 -3.9
04:20 1024 30.24 853 25.19 -13.6 7.6 60 -19.8 -3.7
04:25 1023 30.21 853 25.19 -13.4 7.8 59 -19.8 -3.6
04:30 1023 30.21 853 25.19 -13.4 7.9 59 -19.8 -3.7
04:35 1023 30.21 853 25.19 -13.3 8.1 58 -19.8 -3.7
04:40 1023 30.21 852 25.16 -13 8.6 57 -19.8 -3.6
04:45 1023 30.21 852 25.16 -12.9 8.9 57 -19.7 -3.5
04:50 1023 30.21 852 25.16 -12.7 9.1 57 -19.7 -3.4
04:55 1023 30.21 852 25.16 -12.8 9.1 58 -19.5 -3
05:00 1023 30.21 852 25.16 -12.9 8.9 57 -19.6 -3.3
05:05 1023 30.21 852 25.16 -12.7 9.1 58 -19.4 -2.9
05:10 1023 30.21 852 25.16 -12.7 9.1 57 -19.5 -3.1
05:15 1023 30.21 852 25.16 -11.8 10.7 54 -19.4 -3
05:20 1023 30.21 852 25.16 -11.3 11.7 51 -19.4 -3
05:25 1023 30.21 852 25.16 -10.7 12.7 50 -19.2 -2.6
05:30 1023 30.21 852 25.16 -11.1 12 52 -19.2 -2.5
05:35 1023 30.21 852 25.16 -11.5 11.4 53 -19.2 -2.6
05:40 1023 30.21 852 25.16 -11.4 11.5 53 -19.3 -2.7
05:45 1023 30.21 852 25.16 -11.5 11.4 53 -19.2 -2.6
05:50 1023 30.21 852 25.16 -11.6 11.2 54 -19 -2.3
05:55 1023 30.21 852 25.16 -12.3 9.8 55 -19.7 -3.5
06:00 1023 30.21 852 25.16 -12.7 9.1 55 -19.9 -3.9
06:05 1023 30.21 852 25.16 -12.9 8.9 55 -20.1 -4.1
06:10 1022 30.18 852 25.16 -12.5 9.4 53 -20.3 -4.5
06:15 1022 30.18 852 25.16 -12.4 9.6 54 -19.9 -3.8
06:20 1022 30.18 852 25.16 -12.3 9.8 54 -19.8 -3.6
06:25 1022 30.18 852 25.16 -12.4 9.8 54 -19.8 -3.7
06:30 1022 30.18 852 25.16 -12.2 10.1 54 -19.7 -3.5
06:35 1022 30.18 852 25.16 -12.3 9.9 55 -19.6 -3.3
06:40 1022 30.18 852 25.16 -12.2 10 54 -19.7 -3.4
06:45 1023 30.21 852 25.16 -12.3 9.9 55 -19.7 -3.4
06:50 1023 30.21 852 25.16 -12.2 10.1 54 -19.8 -3.6
06:55 1023 30.21 852 25.16 -12.2 10.1 54 -19.7 -3.4
07:00 1023 30.21 852 25.16 -12.4 9.8 55 -19.7 -3.4
07:05 1023 30.21 852 25.16 -12.4 9.6 55 -19.6 -3.3
07:10 1023 30.21 852 25.16 -12.5 9.6 57 -19.3 -2.7
07:15 1023 30.21 852 25.16 -12.4 9.6 55 -19.7 -3.4
07:20 1023 30.21 852 25.16 -12.1 10.2 57 -19 -2.2
07:25 1022 30.18 852 25.16 -12.1 10.2 55 -19.5 -3
07:30 1022 30.18 852 25.16 -12.4 9.7 56 -19.6 -3.3
07:35 1022 30.18 852 25.16 -12.5 9.6 55 -19.7 -3.5
07:40 1023 30.21 852 25.16 -13.1 8.3 56 -20.1 -4.2
07:45 1023 30.21 852 25.16 -13.5 7.7 57 -20.3 -4.5
07:50 1023 30.21 852 25.16 -13 8.7 54 -20.5 -5
07:55 1023 30.21 852 25.16 -12 10.4 53 -19.8 -3.6
08:00 1023 30.21 852 25.16 -12.4 9.6 55 -19.7 -3.5
08:05 1023 30.21 852 25.16 -12.8 9 56 -19.9 -3.8
08:10 1023 30.21 852 25.16 -13.4 7.8 55 -20.6 -5.2
08:15 1023 30.21 852 25.16 -13.9 7.1 57 -20.7 -5.3
08:20 1023 30.21 852 25.16 -13.9 6.9 58 -20.6 -5
08:25 1023 30.21 852 25.16 -13.9 6.9 58 -20.5 -4.9
08:30 1023 30.21 852 25.16 -13.7 7.3 58 -20.2 -4.4
08:35 1023 30.21 852 25.16 -13.4 8 54 -20.7 -5.3
08:40 1023 30.21 852 25.16 -13 8.6 52 -21 -5.8
08:45 1023 30.21 852 25.16 -12.7 9.1 50 -21.2 -6.2
08:50 1023 30.21 852 25.16 -12.4 9.7 48 -21.3 -6.3
08:55 1023 30.21 852 25.16 -11.9 10.6 49 -20.7 -5.3
09:00 1023 30.21 852 25.16 -12.4 9.7 56 -19.4 -2.8
09:05 1023 30.21 852 25.16 -13.6 7.5 61 -19.6 -3.2
09:10 1023 30.21 852 25.16 -13.9 7 60 -20.1 -4.2
09:15 1023 30.21 852 25.16 -13.8 7.1 57 -20.5 -5
09:20 1023 30.21 852 25.16 -13.5 7.8 56 -20.4 -4.7
09:25 1023 30.21 852 25.16 -13.4 7.9 59 -19.9 -3.8
09:30 1023 30.21 852 25.16 -13.1 8.5 55 -20.3 -4.5
09:35 1023 30.21 852 25.16 -12.8 9 55 -20 -4.1
09:40 1022 30.18 852 25.16 -12.8 9 57 -19.6 -3.3
09:45 1022 30.18 852 25.16 -12.8 9.1 56 -19.9 -3.8
09:50 1022 30.18 852 25.16 -12.7 9.2 56 -19.8 -3.6
09:55 1022 30.18 852 25.16 -12.4 9.7 55 -19.7 -3.5
10:00 1022 30.18 852 25.16 -12.3 9.8 54 -19.8 -3.6
10:05 1022 30.18 852 25.16 -12.1 10.1 52 -20.2 -4.3
10:10 1022 30.18 852 25.16 -11.4 11.4 50 -19.9 -3.8
10:15 1022 30.18 852 25.16 -10.6 12.9 49 -19.4 -2.9
10:20 1022 30.18 852 25.16 -10.1 13.8 49 -19 -2.3
10:25 1022 30.18 852 25.16 -9.5 14.9 46 -19 -2.2
10:30 1022 30.18 852 25.16 -8.9 16.1 45 -18.8 -1.8
10:35 1022 30.18 852 25.16 -8.4 16.9 41 -19.5 -3
10:40 1023 30.21 852 25.16 -8.2 17.3 42 -18.9 -2
10:45 1022 30.18 852 25.16 -8.2 17.2 44 -18.5 -1.2
10:50 1022 30.18 852 25.16 -8.5 16.8 42 -19.2 -2.6
10:55 1022 30.18 852 25.16 -8.1 17.5 40 -19.4 -2.8
11:00 1022 30.18 852 25.16 -7.7 18.2 39 -19.3 -2.8
11:05 1022 30.18 852 25.16 -7.4 18.6 36 -20 -4
11:10 1022 30.18 852 25.16 -7.1 19.3 38 -19.2 -2.6
11:15 1022 30.18 852 25.16 -6.8 19.8 37 -19.2 -2.6
11:20 1022 30.18 852 25.16 -6.1 21 35 -19.2 -2.6
11:25 1022 30.18 851 25.13 -6.2 20.8 34 -19.6 -3.4
11:30 1022 30.18 851 25.13 -7 19.5 37 -19.5 -3.1
11:35 1022 30.18 851 25.13 -6.7 20 36 -19.3 -2.8
11:40 1022 30.18 851 25.13 -6.9 19.6 38 -19.1 -2.4
11:45 1022 30.18 851 25.13 -6.2 20.8 35 -19.3 -2.7
11:50 1022 30.18 851 25.13 -6.1 21 37 -18.5 -1.3
11:55 1022 30.18 851 25.13 -5.9 21.5 37 -18.4 -1
12:00 1022 30.18 851 25.13 -6.3 20.7 39 -18 -0.4
12:05 1022 30.18 851 25.13 -5.8 21.5 38 -18 -0.3
12:10 1021 30.15 851 25.13 -5.5 22.2 36 -18.5 -1.2
12:15 1021 30.15 850 25.1 -5.7 21.7 35 -19 -2.1
12:20 1021 30.15 850 25.1 -5.9 21.4 37 -18.5 -1.2
12:25 1021 30.15 850 25.1 -5.1 22.7 33 -18.9 -2.1
12:30 1021 30.15 850 25.1 -4.8 23.4 34 -18.3 -0.9
12:35 1021 30.15 850 25.1 -4.6 23.7 34 -18.1 -0.6
12:40 1021 30.15 850 25.1 -3.8 25.2 30 -18.9 -2
12:45 1021 30.15 850 25.1 -3.2 26.2 33 -17.2 1.1
12:50 1021 30.15 850 25.1 -3 26.6 34 -16.8 1.7
12:55 1021 30.15 850 25.1 -3.3 26.1 32 -17.6 0.3
13:00 1021 30.15 850 25.1 -3.6 25.6 34 -17.4 0.7
13:05 1021 30.15 850 25.1 -3 26.7 33 -17.3 0.9
13:10 1020 30.12 850 25.1 -3 26.5 32 -17.5 0.5
13:15 1020 30.12 850 25.1 -4.3 24.2 35 -17.7 0.2
13:20 1020 30.12 850 25.1 -4.2 24.4 34 -18 -0.4
13:25 1020 30.12 849 25.07 -3.7 25.3 33 -18 -0.3
13:30 1020 30.12 849 25.07 -3.2 26.2 33 -17.3 0.9
13:35 1020 30.12 849 25.07 -2.5 27.5 31 -17.6 0.3
13:40 1020 30.12 849 25.07 -2.2 28 30 -17.7 0.1
13:45 1020 30.12 849 25.07 -2.2 28.1 32 -16.9 1.6
13:50 1020 30.12 849 25.07 -2.4 27.7 32 -16.8 1.7
13:55 1020 30.12 849 25.07 -3.2 26.3 35 -16.6 2.1
14:00 1020 30.12 849 25.07 -3.6 25.5 38 -16.1 3
14:05 1020 30.12 849 25.07 -3.3 26.1 33 -17.3 0.8
14:10 1020 30.12 849 25.07 -2.8 27 31 -17.5 0.4
14:15 1020 30.12 849 25.07 -2.8 27 35 -16.3 2.7
14:20 1020 30.12 849 25.07 -2.7 27.1 35 -16.3 2.7
14:25 1020 30.12 849 25.07 -2 28.4 32 -16.8 1.7
14:30 1020 30.12 849 25.07 -1.3 29.7 31 -16.2 2.8
14:35 1020 30.12 849 25.07 -1.2 29.8 31 -16.5 2.3
14:40 1020 30.12 849 25.07 -1.4 29.4 32 -16.3 2.6
14:45 1020 30.12 849 25.07 -2.1 28.2 33 -16.3 2.6
14:50 1020 30.12 849 25.07 -2.2 28.1 32 -16.6 2
14:55 1020 30.12 849 25.07 -2.3 27.8 33 -16.7 1.9
15:00 1020 30.12 849 25.07 -2.3 27.9 32 -16.8 1.8
15:05 1019 30.09 849 25.07 -2.6 27.4 31 -17.5 0.5
15:10 1019 30.09 849 25.07 -2.6 27.4 30 -17.9 -0.2
15:15 1019 30.09 848 25.04 -2.5 27.5 29 -18.3 -1
15:20 1019 30.09 848 25.04 -2.7 27.2 28 -19 -2.2
15:25 1019 30.09 848 25.04 -2.5 27.5 26 -19.5 -3
15:30 1019 30.09 848 25.04 -2.1 28.1 25 -19.7 -3.5
15:35 1019 30.09 848 25.04 -2.1 28.3 24 -20 -4
15:40 1019 30.09 848 25.04 -2.3 27.8 25 -19.9 -3.8
15:45 1019 30.09 848 25.04 -1.9 28.5 23 -20.5 -4.8
15:50 1019 30.09 848 25.04 -1.7 29 26 -19 -2.2
15:55 1019 30.09 848 25.04 -1.4 29.4 23 -20.1 -4.1
16:00 1019 30.09 848 25.04 -1.7 29 22 -20.7 -5.3
16:05 1019 30.09 848 25.04 -1.2 29.8 22 -20.5 -4.9
16:10 1019 30.09 848 25.04 -1.2 29.9 23 -20.1 -4.2
16:15 1019 30.09 848 25.04 -1.1 30 22 -20.3 -4.5
16:20 1018 30.06 848 25.04 -0.5 31.2 20 -20.9 -5.7
16:25 1018 30.06 848 25.04 -0.4 31.4 22 -19.4 -3
16:30 1018 30.06 847 25.01 0 32 21 -19.7 -3.5
16:35 1018 30.06 847 25.01 0 32 21 -20 -4
16:40 1018 30.06 847 25.01 -0.3 31.4 28 -16.9 1.5
16:45 1018 30.06 847 25.01 -0.2 31.6 27 -17.2 1.1
16:50 1018 30.06 847 25.01 0 32 27 -17 1.4
16:55 1018 30.06 847 25.01 -0.4 31.3 27 -17.1 1.2
17:00 1018 30.06 847 25.01 -0.8 30.6 28 -17.2 1
17:05 1018 30.06 847 25.01 -0.7 30.8 29 -16.7 1.9
17:10 1018 30.06 847 25.01 -0.9 30.4 29 -16.8 1.7
17:15 1018 30.06 847 25.01 -1.4 29.5 31 -16.5 2.3
17:20 1018 30.06 847 25.01 -2 28.5 32 -16.7 2
17:25 1018 30.06 847 25.01 -1.9 28.7 32 -16.5 2.3
17:30 1018 30.06 847 25.01 -1.7 29 32 -16.2 2.9
17:35 1018 30.06 847 25.01 -1.6 29.1 33 -15.8 3.6
17:40 1018 30.06 847 25.01 -1.7 28.9 31 -16.7 1.9
17:45 1018 30.06 847 25.01 -2 28.4 33 -16.4 2.5
17:50 1018 30.06 847 25.01 -2.1 28.1 35 -15.8 3.5
17:55 1018 30.06 847 25.01 -2.4 27.7 34 -16.4 2.5
18:00 1018 30.06 847 25.01 -2.8 27 31 -17.7 0.1
18:05 1018 30.06 847 25.01 -3 26.6 32 -17.7 0.2
18:10 1018 30.06 847 25.01 -3.1 26.4 34 -16.9 1.7
18:15 1018 30.06 847 25.01 -3.5 25.6 36 -16.7 1.9
18:20 1018 30.06 847 25.01 -3.7 25.4 36 -16.6 2.2
18:25 1018 30.06 847 25.01 -3.7 25.3 38 -16.1 3.1
18:30 1018 30.06 847 25.01 -3.9 25.1 40 -15.7 3.8
18:35 1018 30.06 847 25.01 -3.9 25 40 -15.5 4
18:40 1018 30.06 847 25.01 -4.2 24.5 41 -15.7 3.8
18:45 1018 30.06 847 25.01 -4.3 24.3 41 -15.8 3.6
18:50 1018 30.06 847 25.01 -4.4 24.1 41 -15.9 3.3
18:55 1018 30.06 847 25.01 -4.4 24.1 41 -15.9 3.4
19:00 1018 30.06 847 25.01 -4.6 23.8 42 -15.8 3.6
19:05 1018 30.06 847 25.01 -4.7 23.6 42 -15.6 3.9
19:10 1018 30.06 847 25.01 -4.8 23.3 41 -16.3 2.7
19:15 1018 30.06 847 25.01 -5.1 22.9 41 -16.4 2.4
19:20 1018 30.06 847 25.01 -5.1 22.7 41 -16.5 2.2
19:25 1018 30.06 847 25.01 -5 22.9 38 -17.2 1
19:30 1018 30.06 847 25.01 -4.9 23.2 39 -16.9 1.6
19:35 1017 30.03 847 25.01 -5 23 36 -17.9 -0.2
19:40 1017 30.03 847 25.01 -4.7 23.6 33 -18.6 -1.6
19:45 1017 30.03 847 25.01 -4.5 24 31 -19.4 -2.9
19:50 1017 30.03 847 25.01 -4.3 24.3 28 -20.1 -4.2
19:55 1017 30.03 847 25.01 -4 24.7 25 -21.2 -6.2
20:00 1017 30.03 847 25.01 -3.8 25.1 34 -17.6 0.3
20:05 1017 30.03 847 25.01 -4 24.8 29 -19.6 -3.2
20:10 1017 30.03 847 25.01 -4 24.8 37 -16.8 1.8
20:15 1017 30.03 847 25.01 -4.1 24.6 44 -14.8 5.4
20:20 1017 30.03 847 25.01 -4.2 24.5 47 -14 6.7
20:25 1017 30.03 847 25.01 -3.7 25.3 45 -14 6.7
20:30 1017 30.03 847 25.01 -3.9 25.1 46 -13.7 7.3
20:35 1017 30.03 847 25.01 -3.6 25.6 44 -14 6.7
20:40 1017 30.03 847 25.01 -3.3 26 44 -14 6.7
20:45 1017 30.03 847 25.01 -3.4 25.9 42 -14.5 5.9
20:50 1018 30.06 847 25.01 -2.7 27.1 40 -14.5 5.8
20:55 1018 30.06 847 25.01 -2.3 27.8 43 -13.3 8
21:00 1018 30.06 847 25.01 -2.4 27.7 41 -14 6.8
21:05 1018 30.06 847 25.01 -2.2 28.1 41 -13.8 7.2
21:10 1018 30.06 847 25.01 -2 28.4 38 -14.7 5.6
21:15 1018 30.06 847 25.01 -1.6 29.1 39 -13.9 7
21:20 1018 30.06 847 25.01 -1.4 29.5 38 -14.1 6.6
21:25 1018 30.06 847 25.01 -1.5 29.3 42 -12.9 8.7
21:30 1018 30.06 848 25.04 -1.7 28.9 35 -15.2 4.7
21:35 1018 30.06 848 25.04 -1.6 29.2 43 -12.5 9.5
21:40 1018 30.06 848 25.04 -1.8 28.8 39 -14 6.7
21:45 1018 30.06 847 25.01 -1.9 28.5 38 -14.5 6
21:50 1018 30.06 847 25.01 -2.4 27.7 48 -12.1 10.3
21:55 1018 30.06 847 25.01 -2.7 27.2 35 -16.2 2.8
22:00 1018 30.06 847 25.01 -2.2 28.1 42 -13.5 7.8
22:05 1018 30.06 847 25.01 -2.2 28 42 -13.4 7.9
22:10 1018 30.06 847 25.01 -2.1 28.2 39 -14.2 6.4
22:15 1018 30.06 847 25.01 -1.7 29 41 -13.4 7.8
22:20 1018 30.06 847 25.01 -1.4 29.5 43 -12.5 9.4
22:25 1018 30.06 847 25.01 -1.4 29.5 41 -12.9 8.8
22:30 1018 30.06 847 25.01 -1.1 30.1 43 -12 10.3
22:35 1018 30.06 847 25.01 -0.7 30.7 41 -12.3 9.8
22:40 1018 30.06 847 25.01 -0.8 30.5 43 -12.1 10.3
22:45 1018 30.06 847 25.01 -1 30.3 42 -12.2 10
22:50 1017 30.03 847 25.01 -1 30.3 43 -12.1 10.3
22:55 1017 30.03 847 25.01 -0.9 30.4 44 -11.8 10.7
23:00 1018 30.06 847 25.01 -0.9 30.4 44 -11.7 11
23:05 1018 30.06 847 25.01 -1.2 29.9 48 -10.9 12.4
23:10 1018 30.06 847 25.01 -1.3 29.7 49 -10.6 13
23:15 1018 30.06 847 25.01 -1.2 29.9 51 -10.1 13.9
23:20 1018 30.06 847 25.01 -0.9 30.4 52 -9.5 14.8
23:25 1018 30.06 847 25.01 -0.8 30.6 51 -9.6 14.7
23:30 1018 30.06 847 25.01 -0.8 30.6 57 -8.2 17.2
23:35 1018 30.06 847 25.01 -0.6 30.9 53 -9 15.8
23:40 1018 30.06 847 25.01 -0.7 30.8 55 -8.5 16.7
23:45 1017 30.03 847 25.01 -0.6 30.9 57 -8.1 17.5
23:50 1017 30.03 847 25.01 -0.3 31.4 55 -8.2 17.2
23:55 1017 30.03 846 24.98 -0.3 31.4 62 -6.8 19.7
24:00 1017 30.03 846 24.98 -0.1 31.9 55 -7.9 17.7